createdAt,value
2022-08-22T00:00:00.700Z,71.07
2022-08-22T00:01:29.122Z,71.33
2022-08-22T00:02:37.088Z,71.23
2022-08-22T00:02:49.336Z,64.88
2022-08-22T00:02:56.790Z,63.44
2022-08-22T00:03:02.492Z,65.03
2022-08-22T00:03:02.493Z,62.02
2022-08-22T00:03:03.231Z,61.74
2022-08-22T00:03:04.986Z,65.81
2022-08-22T00:03:09.240Z,56.07
2022-08-22T00:03:09.334Z,68.87
2022-08-22T00:04:13.293Z,71.12
2022-08-22T00:05:27.116Z,70.85
2022-08-22T00:06:41.979Z,70.77
2022-08-22T00:08:19.434Z,70.44
2022-08-22T00:09:40.430Z,70.84
2022-08-22T00:11:15.216Z,71.05
2022-08-22T00:12:34.393Z,71.04
2022-08-22T00:14:01.227Z,70.88
2022-08-22T00:15:12.744Z,70.93
2022-08-22T00:16:43.906Z,70.52
2022-08-22T00:18:32.975Z,70.07
2022-08-22T00:19:52.017Z,70.84
2022-08-22T00:21:03.812Z,70.89
2022-08-22T00:22:23.334Z,71.01
2022-08-22T00:23:33.952Z,70.67
2022-08-22T00:24:46.030Z,70.81
2022-08-22T00:25:59.713Z,71.42
2022-08-22T00:27:09.686Z,71.37
2022-08-22T00:28:41.762Z,71.28
2022-08-22T00:30:05.780Z,70.29
2022-08-22T00:31:27.272Z,70.65
2022-08-22T00:32:41.887Z,70.86
2022-08-22T00:34:00.546Z,70.92
2022-08-22T00:35:17.030Z,70.47
2022-08-22T00:36:25.161Z,70.12
2022-08-22T00:37:37.852Z,70.10
2022-08-22T00:38:46.637Z,70.48
2022-08-22T00:40:03.330Z,70.55
2022-08-22T00:41:29.100Z,71.20
2022-08-22T00:42:48.590Z,70.52
2022-08-22T00:44:11.915Z,70.81
2022-08-22T00:45:32.979Z,71.24
2022-08-22T00:46:57.518Z,71.63
2022-08-22T00:48:27.093Z,71.08
2022-08-22T00:49:29.713Z,71.15
2022-08-22T00:50:55.902Z,71.48
2022-08-22T00:52:32.065Z,72.06
2022-08-22T00:53:36.216Z,71.27
2022-08-22T00:54:47.379Z,70.91
2022-08-22T00:55:51.629Z,70.23
2022-08-22T00:57:11.351Z,70.19
2022-08-22T00:58:22.939Z,69.83
2022-08-22T00:59:47.880Z,69.36
2022-08-22T01:00:56.119Z,69.73
2022-08-22T01:02:19.126Z,69.18
2022-08-22T01:03:46.705Z,68.89
2022-08-22T01:05:00.435Z,68.62
2022-08-22T01:06:20.113Z,68.40
2022-08-22T01:07:54.514Z,68.12
2022-08-22T01:09:17.416Z,68.25
2022-08-22T01:10:29.431Z,68.56
2022-08-22T01:11:34.185Z,69.00
2022-08-22T01:12:38.279Z,69.43
2022-08-22T01:13:58.468Z,69.83
2022-08-22T01:15:05.591Z,69.48
2022-08-22T01:16:35.383Z,69.36
2022-08-22T01:18:01.529Z,69.20
2022-08-22T01:19:47.254Z,70.24
2022-08-22T01:21:07.437Z,70.55
2022-08-22T01:22:34.527Z,71.13
2022-08-22T01:23:51.248Z,70.91
2022-08-22T01:25:18.396Z,70.05
2022-08-22T01:27:03.951Z,70.18
2022-08-22T01:28:26.722Z,69.79
2022-08-22T01:30:01.868Z,70.34
2022-08-22T01:31:42.539Z,70.68
2022-08-22T01:33:18.418Z,71.01
2022-08-22T01:34:34.777Z,71.01
2022-08-22T01:36:01.058Z,71.03
2022-08-22T01:37:30.879Z,71.80
2022-08-22T01:39:04.846Z,71.58
2022-08-22T01:40:53.945Z,71.37
2022-08-22T01:42:15.240Z,71.44
2022-08-22T01:43:51.287Z,71.64
2022-08-22T01:45:31.513Z,71.19
2022-08-22T01:46:36.695Z,71.60
2022-08-22T01:47:58.314Z,71.41
2022-08-22T01:49:22.263Z,71.56
2022-08-22T01:50:49.426Z,72.00
2022-08-22T01:52:00.167Z,71.55
2022-08-22T01:53:06.319Z,71.71
2022-08-22T01:54:20.134Z,72.18
2022-08-22T01:55:32.963Z,71.80
2022-08-22T01:56:41.654Z,71.75
2022-08-22T01:57:53.498Z,71.87
2022-08-22T01:58:59.818Z,72.10
2022-08-22T02:00:17.143Z,71.85
2022-08-22T02:01:36.390Z,71.69
2022-08-22T02:02:46.961Z,71.83
2022-08-22T02:04:04.330Z,71.72
2022-08-22T02:05:25.752Z,71.32
2022-08-22T02:06:39.890Z,71.64
2022-08-22T02:07:48.448Z,71.86
2022-08-22T02:09:01.829Z,70.61
2022-08-22T02:10:40.792Z,71.57
2022-08-22T02:11:55.916Z,71.94
2022-08-22T02:13:13.268Z,72.10
2022-08-22T02:14:14.784Z,72.00
2022-08-22T02:15:30.394Z,72.60
2022-08-22T02:16:38.093Z,72.53
2022-08-22T02:18:06.239Z,72.23
2022-08-22T02:19:16.643Z,71.61
2022-08-22T02:20:25.784Z,71.87
2022-08-22T02:21:54.107Z,72.19
2022-08-22T02:23:08.182Z,72.05
2022-08-22T02:24:29.319Z,72.24
2022-08-22T02:25:45.066Z,71.55
2022-08-22T02:27:04.255Z,72.12
2022-08-22T02:28:16.011Z,72.18
2022-08-22T02:29:23.132Z,71.93
2022-08-22T02:30:50.509Z,71.89
2022-08-22T02:32:05.683Z,71.81
2022-08-22T02:33:13.633Z,71.92
2022-08-22T02:34:27.991Z,71.86
2022-08-22T02:35:48.315Z,72.07
2022-08-22T02:36:58.176Z,71.49
2022-08-22T02:38:25.285Z,71.18
2022-08-22T02:39:34.812Z,71.35
2022-08-22T02:40:51.254Z,71.32
2022-08-22T02:41:57.306Z,72.03
2022-08-22T02:43:12.391Z,72.22
2022-08-22T02:44:28.864Z,72.23
2022-08-22T02:45:58.274Z,71.67
2022-08-22T02:47:10.505Z,71.90
2022-08-22T02:48:27.946Z,71.99
2022-08-22T02:49:51.560Z,72.27
2022-08-22T02:51:21.352Z,72.26
2022-08-22T02:52:46.458Z,72.44
2022-08-22T02:53:47.844Z,72.61
2022-08-22T02:54:56.822Z,71.74
2022-08-22T02:56:04.399Z,71.19
2022-08-22T02:57:17.087Z,70.69
2022-08-22T02:58:59.269Z,71.38
2022-08-22T03:00:38.466Z,72.15
2022-08-22T03:01:44.516Z,72.59
2022-08-22T03:03:22.884Z,72.52
2022-08-22T03:04:47.581Z,73.01
2022-08-22T03:06:28.472Z,72.20
2022-08-22T03:07:39.282Z,72.23
2022-08-22T03:09:03.224Z,72.83
2022-08-22T03:10:20.366Z,72.61
2022-08-22T03:11:27.657Z,72.66
2022-08-22T03:12:41.173Z,72.72
2022-08-22T03:14:19.926Z,72.46
2022-08-22T03:15:53.626Z,72.67
2022-08-22T03:17:08.144Z,72.74
2022-08-22T03:18:12.608Z,72.69
2022-08-22T03:19:20.158Z,72.44
2022-08-22T03:20:38.730Z,72.80
2022-08-22T03:21:55.101Z,73.01
2022-08-22T03:23:05.447Z,72.79
2022-08-22T03:24:06.941Z,72.85
2022-08-22T03:25:26.603Z,73.09
2022-08-22T03:26:36.978Z,72.38
2022-08-22T03:28:03.342Z,72.27
2022-08-22T03:29:33.986Z,72.50
2022-08-22T03:31:28.312Z,72.99
2022-08-22T03:32:50.838Z,71.80
2022-08-22T03:34:27.093Z,71.56
2022-08-22T03:35:46.911Z,71.65
2022-08-22T03:37:18.323Z,71.85
2022-08-22T03:38:30.614Z,71.30
2022-08-22T03:39:55.532Z,70.59
2022-08-22T03:41:15.519Z,70.05
2022-08-22T03:42:42.868Z,69.73
2022-08-22T03:44:11.914Z,70.94
2022-08-22T03:45:49.924Z,70.21
2022-08-22T03:47:31.969Z,70.13
2022-08-22T03:49:04.551Z,70.95
2022-08-22T03:50:46.474Z,72.29
2022-08-22T03:52:29.592Z,72.49
2022-08-22T03:53:46.462Z,72.82
2022-08-22T03:55:03.578Z,72.84
2022-08-22T03:56:32.462Z,72.73
2022-08-22T03:57:53.027Z,72.71
2022-08-22T03:59:19.773Z,72.88
2022-08-22T04:00:30.353Z,72.57
2022-08-22T04:01:56.642Z,71.99
2022-08-22T04:03:27.651Z,71.08
2022-08-22T04:04:50.927Z,71.42
2022-08-22T04:06:30.074Z,70.47
2022-08-22T04:07:59.469Z,70.20
2022-08-22T04:09:29.366Z,70.04
2022-08-22T04:10:42.403Z,70.31
2022-08-22T04:12:17.787Z,69.67
2022-08-22T04:14:00.224Z,69.80
2022-08-22T04:15:07.468Z,69.97
2022-08-22T04:16:45.933Z,69.90
2022-08-22T04:18:00.571Z,69.82
2022-08-22T04:19:24.868Z,69.66
2022-08-22T04:21:01.763Z,70.14
2022-08-22T04:22:13.895Z,70.16
2022-08-22T04:23:43.843Z,70.79
2022-08-22T04:24:54.383Z,70.77
2022-08-22T04:26:01.061Z,71.37
2022-08-22T04:27:26.481Z,70.99
2022-08-22T04:28:36.138Z,71.13
2022-08-22T04:29:59.072Z,70.97
2022-08-22T04:31:08.629Z,70.90
2022-08-22T04:32:18.973Z,70.97
2022-08-22T04:33:33.325Z,71.65
2022-08-22T04:34:51.015Z,72.00
2022-08-22T04:35:55.319Z,72.17
2022-08-22T04:37:01.694Z,72.86
2022-08-22T04:38:14.372Z,73.29
2022-08-22T04:39:42.196Z,73.32
2022-08-22T04:41:05.851Z,73.25
2022-08-22T04:42:32.202Z,73.34
2022-08-22T04:43:41.265Z,73.54
2022-08-22T04:45:02.283Z,73.80
2022-08-22T04:46:12.706Z,73.67
2022-08-22T04:47:28.567Z,74.20
2022-08-22T04:48:39.017Z,74.09
2022-08-22T04:49:59.578Z,73.98
2022-08-22T04:51:09.264Z,73.79
2022-08-22T04:52:22.619Z,74.13
2022-08-22T04:53:27.102Z,73.85
2022-08-22T04:55:00.927Z,74.07
2022-08-22T04:56:20.895Z,73.95
2022-08-22T04:57:49.062Z,73.96
2022-08-22T04:59:12.694Z,74.47
2022-08-22T05:00:16.559Z,74.41
2022-08-22T05:01:36.922Z,74.33
2022-08-22T05:02:44.681Z,73.91
2022-08-22T05:04:00.362Z,73.84
2022-08-22T05:05:13.160Z,73.90
2022-08-22T05:06:19.030Z,73.53
2022-08-22T05:07:26.294Z,73.95
2022-08-22T05:08:32.480Z,74.03
2022-08-22T05:09:37.748Z,74.02
2022-08-22T05:10:46.623Z,73.81
2022-08-22T05:11:53.208Z,74.10
2022-08-22T05:13:02.827Z,73.91
2022-08-22T05:14:14.400Z,73.33
2022-08-22T05:15:23.230Z,73.20
2022-08-22T05:16:28.987Z,73.06
2022-08-22T05:17:32.179Z,73.27
2022-08-22T05:18:40.458Z,73.42
2022-08-22T05:19:47.831Z,73.28
2022-08-22T05:20:52.177Z,74.03
2022-08-22T05:21:55.456Z,73.70
2022-08-22T05:23:01.991Z,73.83
2022-08-22T05:24:11.879Z,73.78
2022-08-22T05:25:19.015Z,73.80
2022-08-22T05:26:23.643Z,73.95
2022-08-22T05:27:30.880Z,73.71
2022-08-22T05:28:38.985Z,73.87
2022-08-22T05:29:45.642Z,74.25
2022-08-22T05:30:48.618Z,74.32
2022-08-22T05:32:00.517Z,74.18
2022-08-22T05:33:25.191Z,74.18
2022-08-22T05:34:31.060Z,73.99
2022-08-22T05:35:40.754Z,74.13
2022-08-22T05:36:52.126Z,74.07
2022-08-22T05:37:55.215Z,73.87
2022-08-22T05:39:10.066Z,73.78
2022-08-22T05:40:20.675Z,73.66
2022-08-22T05:41:27.174Z,73.01
2022-08-22T05:42:33.442Z,73.20
2022-08-22T05:43:39.206Z,72.44
2022-08-22T05:44:42.410Z,73.03
2022-08-22T05:45:47.105Z,73.56
2022-08-22T05:47:24.092Z,73.78
2022-08-22T05:48:37.332Z,72.92
2022-08-22T05:49:58.109Z,71.16
2022-08-22T05:51:14.529Z,71.38
2022-08-22T05:52:42.547Z,71.66
2022-08-22T05:53:48.700Z,71.59
2022-08-22T05:55:07.151Z,71.91
2022-08-22T05:56:37.145Z,71.70
2022-08-22T05:57:42.664Z,71.94
2022-08-22T05:59:00.137Z,72.25
2022-08-22T06:00:08.937Z,72.61
2022-08-22T06:01:21.932Z,72.76
2022-08-22T06:02:41.768Z,72.39
2022-08-22T06:04:21.798Z,72.24
2022-08-22T06:05:30.775Z,72.94
2022-08-22T06:06:40.059Z,72.79
2022-08-22T06:07:45.718Z,73.48
2022-08-22T06:09:01.071Z,73.31
2022-08-22T06:10:25.625Z,72.65
2022-08-22T06:11:40.726Z,72.25
2022-08-22T06:13:02.494Z,72.48
2022-08-22T06:14:19.636Z,72.87
2022-08-22T06:15:26.354Z,73.03
2022-08-22T06:16:47.693Z,73.53
2022-08-22T06:17:57.118Z,73.56
2022-08-22T06:18:59.783Z,73.27
2022-08-22T06:20:03.021Z,73.30
2022-08-22T06:21:25.566Z,73.26
2022-08-22T06:22:32.481Z,73.35
2022-08-22T06:23:41.202Z,73.33
2022-08-22T06:24:43.205Z,73.15
2022-08-22T06:25:47.378Z,72.53
2022-08-22T06:26:52.237Z,72.27
2022-08-22T06:27:56.435Z,72.24
2022-08-22T06:29:00.503Z,72.03
2022-08-22T06:30:04.080Z,71.80
2022-08-22T06:31:08.242Z,71.60
2022-08-22T06:32:16.555Z,71.70
2022-08-22T06:33:42.377Z,71.43
2022-08-22T06:34:47.513Z,71.35
2022-08-22T06:36:11.011Z,71.20
2022-08-22T06:37:20.624Z,70.86
2022-08-22T06:38:28.799Z,70.37
2022-08-22T06:39:42.067Z,70.55
2022-08-22T06:40:44.096Z,70.29
2022-08-22T06:41:57.108Z,69.84
2022-08-22T06:42:59.855Z,69.97
2022-08-22T06:44:04.291Z,70.64
2022-08-22T06:45:11.035Z,70.46
2022-08-22T06:46:16.579Z,71.13
2022-08-22T06:47:32.962Z,70.66
2022-08-22T06:48:37.197Z,71.19
2022-08-22T06:49:40.185Z,70.99
2022-08-22T06:50:44.265Z,70.43
2022-08-22T06:51:46.755Z,70.04
2022-08-22T06:53:05.388Z,69.91
2022-08-22T06:54:16.050Z,69.64
2022-08-22T06:55:17.858Z,68.83
2022-08-22T06:56:25.448Z,68.71
2022-08-22T06:57:35.816Z,67.71
2022-08-22T06:58:42.621Z,68.21
2022-08-22T06:59:44.964Z,68.11
2022-08-22T07:01:02.703Z,68.11
2022-08-22T07:02:25.076Z,67.96
2022-08-22T07:03:40.667Z,67.67
2022-08-22T07:04:42.823Z,67.56
2022-08-22T07:05:44.571Z,67.25
2022-08-22T07:06:50.257Z,66.57
2022-08-22T07:07:52.497Z,67.03
2022-08-22T07:08:55.758Z,67.21
2022-08-22T07:09:57.671Z,66.90
2022-08-22T07:11:21.727Z,66.60
2022-08-22T07:12:30.999Z,66.06
2022-08-22T07:13:35.011Z,65.75
2022-08-22T07:14:43.317Z,64.40
2022-08-22T07:15:53.887Z,63.61
2022-08-22T07:17:01.481Z,62.85
2022-08-22T07:18:08.978Z,62.41
2022-08-22T07:19:24.805Z,61.80
2022-08-22T07:20:45.653Z,60.76
2022-08-22T07:21:48.781Z,60.47
2022-08-22T07:23:00.942Z,58.99
2022-08-22T07:24:02.678Z,58.94
2022-08-22T07:25:09.302Z,59.24
2022-08-22T07:26:30.498Z,58.35
2022-08-22T07:27:49.031Z,57.92
2022-08-22T07:28:58.517Z,57.43
2022-08-22T07:30:14.327Z,56.58
2022-08-22T07:31:37.832Z,56.54
2022-08-22T07:33:25.968Z,56.39
2022-08-22T07:34:45.047Z,55.70
2022-08-22T07:35:55.479Z,55.49
2022-08-22T07:37:05.709Z,55.32
2022-08-22T07:38:19.956Z,54.67
2022-08-22T07:39:28.504Z,53.83
2022-08-22T07:40:39.690Z,53.62
2022-08-22T07:41:59.196Z,54.18
2022-08-22T07:43:11.472Z,54.17
2022-08-22T07:44:22.738Z,53.66
2022-08-22T07:45:33.751Z,53.65
2022-08-22T07:46:44.055Z,53.51
2022-08-22T07:48:19.793Z,52.21
2022-08-22T07:49:36.097Z,52.00
2022-08-22T07:50:51.522Z,51.76
2022-08-22T07:51:57.724Z,51.84
2022-08-22T07:53:16.788Z,51.07
2022-08-22T07:54:34.861Z,51.00
2022-08-22T07:55:48.449Z,50.48
2022-08-22T07:56:56.466Z,50.43
2022-08-22T07:58:04.800Z,51.46
2022-08-22T07:59:12.989Z,51.49
2022-08-22T08:00:19.316Z,51.54
2022-08-22T08:01:23.411Z,50.95
2022-08-22T08:02:25.476Z,50.99
2022-08-22T08:03:30.016Z,50.74
2022-08-22T08:04:39.959Z,51.46
2022-08-22T08:05:45.124Z,51.67
2022-08-22T08:06:53.438Z,51.45
2022-08-22T08:07:56.631Z,51.67
2022-08-22T08:08:58.893Z,51.75
2022-08-22T08:10:07.906Z,50.60
2022-08-22T08:11:17.138Z,50.24
2022-08-22T08:12:22.862Z,51.50
2022-08-22T08:13:35.590Z,52.60
2022-08-22T08:14:40.875Z,52.73
2022-08-22T08:15:46.232Z,52.49
2022-08-22T08:17:28.877Z,52.33
2022-08-22T08:18:35.845Z,51.83
2022-08-22T08:19:41.444Z,51.48
2022-08-22T08:20:43.372Z,50.66
2022-08-22T08:21:53.410Z,49.52
2022-08-22T08:22:57.186Z,49.17
2022-08-22T08:24:00.825Z,49.11
2022-08-22T08:25:03.380Z,48.96
2022-08-22T08:26:13.290Z,48.36
2022-08-22T08:27:43.235Z,48.03
2022-08-22T08:28:49.706Z,47.91
2022-08-22T08:30:01.860Z,47.59
2022-08-22T08:31:12.862Z,47.17
2022-08-22T08:32:14.979Z,47.69
2022-08-22T08:33:25.762Z,47.64
2022-08-22T08:34:32.408Z,45.83
2022-08-22T08:35:42.418Z,46.16
2022-08-22T08:37:21.075Z,45.00
2022-08-22T08:38:30.217Z,44.76
2022-08-22T08:39:39.264Z,44.86
2022-08-22T08:41:19.677Z,44.73
2022-08-22T08:43:01.922Z,43.37
2022-08-22T08:44:40.914Z,41.54
2022-08-22T08:46:14.843Z,40.88
2022-08-22T08:47:31.885Z,39.87
2022-08-22T08:49:09.761Z,39.65
2022-08-22T08:50:37.747Z,39.02
2022-08-22T08:52:02.792Z,39.13
2022-08-22T08:53:35.406Z,40.14
2022-08-22T08:54:55.735Z,40.30
2022-08-22T08:56:20.593Z,40.44
2022-08-22T08:57:45.176Z,40.35
2022-08-22T08:59:01.114Z,38.65
2022-08-22T09:00:14.993Z,38.39
2022-08-22T09:02:01.567Z,38.14
2022-08-22T09:03:47.935Z,38.47
2022-08-22T09:05:40.847Z,39.56
2022-08-22T09:06:45.331Z,38.19
2022-08-22T09:08:36.691Z,39.28
2022-08-22T09:10:02.960Z,40.90
2022-08-22T09:11:28.709Z,41.50
2022-08-22T09:13:11.651Z,41.05
2022-08-22T09:14:32.143Z,40.21
2022-08-22T09:15:58.636Z,39.55
2022-08-22T09:18:51.327Z,40.73
2022-08-22T09:20:30.552Z,40.28
2022-08-22T09:22:14.228Z,40.65
2022-08-22T09:23:28.312Z,41.23
2022-08-22T09:24:42.569Z,40.48
2022-08-22T09:25:57.370Z,40.97
2022-08-22T09:27:36.139Z,41.77
2022-08-22T09:28:55.992Z,41.34
2022-08-22T09:30:07.631Z,41.55
2022-08-22T09:31:47.962Z,41.53
2022-08-22T09:33:04.934Z,41.32
2022-08-22T09:34:37.221Z,41.28
2022-08-22T09:36:05.356Z,41.65
2022-08-22T09:37:36.083Z,41.49
2022-08-22T09:39:03.420Z,41.61
2022-08-22T09:40:16.596Z,40.31
2022-08-22T09:40:18.825Z,40.91
2022-08-22T09:41:40.869Z,40.82
2022-08-22T09:42:53.949Z,41.00
2022-08-22T09:44:54.229Z,39.79
2022-08-22T09:46:16.175Z,40.41
2022-08-22T09:47:31.313Z,40.81
2022-08-22T09:48:58.262Z,40.97
2022-08-22T09:50:20.803Z,40.95
2022-08-22T09:51:53.084Z,41.02
2022-08-22T09:53:12.048Z,40.09
2022-08-22T09:54:14.235Z,40.05
2022-08-22T09:55:35.620Z,40.15
2022-08-22T09:56:52.294Z,40.65
2022-08-22T09:58:05.808Z,39.98
2022-08-22T09:59:47.029Z,41.35
2022-08-22T10:00:57.674Z,40.23
2022-08-22T10:02:21.900Z,38.85
2022-08-22T10:03:33.174Z,38.54
2022-08-22T10:04:47.515Z,39.38
2022-08-22T10:06:02.476Z,39.43
2022-08-22T10:07:13.423Z,40.31
2022-08-22T10:08:38.379Z,38.91
2022-08-22T10:10:10.045Z,38.67
2022-08-22T10:11:42.396Z,40.46
2022-08-22T10:13:00.201Z,39.65
2022-08-22T10:14:15.069Z,39.73
2022-08-22T10:15:47.245Z,39.47
2022-08-22T10:17:13.191Z,38.69
2022-08-22T10:18:53.751Z,38.94
2022-08-22T10:20:11.646Z,39.65
2022-08-22T10:21:59.621Z,39.23
2022-08-22T10:23:31.461Z,38.87
2022-08-22T10:24:57.122Z,38.77
2022-08-22T10:26:22.981Z,39.28
2022-08-22T10:27:43.789Z,38.87
2022-08-22T10:28:55.671Z,39.40
2022-08-22T10:30:03.472Z,38.99
2022-08-22T10:31:30.573Z,38.69
2022-08-22T10:33:02.356Z,38.53
2022-08-22T10:34:17.043Z,38.48
2022-08-22T10:35:25.601Z,38.25
2022-08-22T10:36:35.574Z,38.79
2022-08-22T10:37:50.848Z,38.60
2022-08-22T10:38:54.734Z,37.34
2022-08-22T10:40:03.042Z,38.42
2022-08-22T10:41:26.888Z,39.42
2022-08-22T10:42:35.163Z,39.00
2022-08-22T10:43:45.997Z,39.00
2022-08-22T10:45:15.403Z,39.75
2022-08-22T10:46:37.184Z,39.30
2022-08-22T10:48:08.788Z,38.60
2022-08-22T10:49:20.675Z,38.56
2022-08-22T10:50:31.885Z,38.80
2022-08-22T10:51:56.693Z,38.51
2022-08-22T10:53:29.458Z,38.67
2022-08-22T10:54:41.857Z,39.46
2022-08-22T10:55:48.158Z,39.93
2022-08-22T10:57:02.569Z,39.46
2022-08-22T10:58:08.140Z,39.65
2022-08-22T10:59:16.395Z,39.46
2022-08-22T11:00:26.984Z,38.61
2022-08-22T11:01:41.677Z,38.64
2022-08-22T11:02:53.520Z,38.73
2022-08-22T11:04:16.831Z,38.08
2022-08-22T11:05:39.402Z,37.84
2022-08-22T11:06:50.660Z,38.25
2022-08-22T11:08:19.872Z,38.76
2022-08-22T11:09:38.437Z,38.66
2022-08-22T11:10:56.835Z,38.83
2022-08-22T11:12:16.310Z,38.12
2022-08-22T11:13:43.558Z,37.71
2022-08-22T11:15:33.259Z,37.68
2022-08-22T11:16:55.983Z,37.74
2022-08-22T11:18:14.145Z,37.43
2022-08-22T11:20:01.933Z,37.44
2022-08-22T11:21:11.093Z,37.09
2022-08-22T11:22:42.291Z,37.73
2022-08-22T11:23:55.181Z,38.20
2022-08-22T11:25:15.202Z,38.72
2022-08-22T11:26:47.272Z,38.87
2022-08-22T11:28:40.731Z,37.29
2022-08-22T11:30:05.453Z,37.78
2022-08-22T11:31:47.164Z,37.69
2022-08-22T11:33:00.806Z,38.00
2022-08-22T11:34:31.192Z,37.58
2022-08-22T11:35:43.806Z,36.01
2022-08-22T11:36:50.306Z,35.82
2022-08-22T11:38:05.364Z,36.52
2022-08-22T11:39:33.431Z,36.95
2022-08-22T11:40:57.705Z,35.63
2022-08-22T11:42:37.784Z,35.74
2022-08-22T11:44:07.135Z,36.78
2022-08-22T11:45:19.760Z,36.56
2022-08-22T11:46:32.073Z,36.10
2022-08-22T11:47:48.310Z,35.58
2022-08-22T11:48:55.882Z,35.07
2022-08-22T11:50:15.057Z,35.22
2022-08-22T11:51:44.235Z,34.49
2022-08-22T11:53:07.810Z,34.67
2022-08-22T11:54:31.037Z,35.40
2022-08-22T11:55:38.429Z,35.70
2022-08-22T11:56:54.880Z,35.82
2022-08-22T11:58:12.365Z,34.84
2022-08-22T11:59:29.692Z,35.00
2022-08-22T12:00:47.560Z,34.86
2022-08-22T12:02:09.096Z,35.58
2022-08-22T12:03:35.545Z,35.64
2022-08-22T12:04:52.721Z,35.37
2022-08-22T12:06:07.704Z,35.33
2022-08-22T12:07:09.297Z,35.39
2022-08-22T12:08:34.530Z,35.60
2022-08-22T12:09:56.037Z,36.28
2022-08-22T12:11:17.620Z,36.64
2022-08-22T12:12:43.311Z,35.96
2022-08-22T12:14:06.530Z,35.39
2022-08-22T12:15:15.913Z,36.30
2022-08-22T12:16:34.903Z,36.11
2022-08-22T12:18:07.768Z,35.49
2022-08-22T12:19:33.036Z,36.17
2022-08-22T12:21:09.850Z,35.61
2022-08-22T12:22:36.150Z,35.47
2022-08-22T12:23:50.278Z,35.40
2022-08-22T12:25:10.389Z,36.20
2022-08-22T12:26:29.186Z,36.12
2022-08-22T12:27:33.407Z,36.34
2022-08-22T12:28:59.421Z,35.31
2022-08-22T12:30:13.923Z,35.02
2022-08-22T12:31:27.519Z,35.08
2022-08-22T12:33:03.235Z,35.35
2022-08-22T12:34:14.323Z,33.97
2022-08-22T12:35:29.845Z,34.20
2022-08-22T12:36:53.525Z,33.27
2022-08-22T12:38:28.503Z,33.44
2022-08-22T12:39:43.938Z,32.39
2022-08-22T12:41:09.883Z,32.54
2022-08-22T12:42:31.295Z,32.37
2022-08-22T12:43:57.692Z,32.47
2022-08-22T12:45:20.534Z,31.79
2022-08-22T12:46:47.159Z,32.14
2022-08-22T12:48:10.744Z,31.44
2022-08-22T12:49:22.006Z,31.16
2022-08-22T12:50:38.608Z,30.86
2022-08-22T12:52:04.246Z,30.25
2022-08-22T12:53:13.514Z,30.46
2022-08-22T12:54:43.983Z,30.90
2022-08-22T12:56:16.613Z,31.38
2022-08-22T12:57:36.651Z,30.95
2022-08-22T12:59:21.666Z,31.46
2022-08-22T13:00:35.785Z,29.07
2022-08-22T13:01:44.938Z,29.53
2022-08-22T13:02:53.231Z,29.44
2022-08-22T13:04:00.720Z,28.57
2022-08-22T13:05:19.678Z,27.91
2022-08-22T13:06:33.566Z,28.24
2022-08-22T13:07:37.679Z,28.09
2022-08-22T13:08:44.477Z,28.46
2022-08-22T13:09:57.685Z,27.75
2022-08-22T13:11:10.053Z,28.59
2022-08-22T13:12:23.560Z,28.74
2022-08-22T13:13:37.004Z,28.70
2022-08-22T13:14:39.082Z,29.39
2022-08-22T13:15:55.875Z,29.44
2022-08-22T13:17:01.034Z,29.17
2022-08-22T13:18:29.950Z,30.30
2022-08-22T13:19:44.439Z,29.89
2022-08-22T13:20:50.778Z,28.61
2022-08-22T13:22:08.535Z,28.35
2022-08-22T13:23:39.930Z,28.75
2022-08-22T13:24:52.494Z,28.54
2022-08-22T13:26:32.195Z,27.94
2022-08-22T13:27:51.359Z,28.78
2022-08-22T13:29:22.071Z,28.99
2022-08-22T13:30:34.371Z,28.89
2022-08-22T13:31:42.448Z,28.82
2022-08-22T13:32:50.339Z,30.36
2022-08-22T13:33:59.214Z,29.44
2022-08-22T13:35:02.828Z,29.07
2022-08-22T13:36:14.117Z,29.15
2022-08-22T13:37:24.850Z,27.54
2022-08-22T13:38:39.330Z,28.24
2022-08-22T13:39:52.659Z,28.06
2022-08-22T13:40:57.493Z,28.31
2022-08-22T13:42:01.465Z,28.05
2022-08-22T13:43:09.790Z,29.24
2022-08-22T13:44:22.302Z,28.97
2022-08-22T13:45:28.648Z,29.23
2022-08-22T13:46:35.463Z,29.87
2022-08-22T13:47:48.906Z,29.85
2022-08-22T13:48:56.672Z,29.11
2022-08-22T13:50:10.041Z,28.49
2022-08-22T13:51:25.088Z,29.40
2022-08-22T13:52:32.880Z,28.81
2022-08-22T13:53:57.453Z,29.53
2022-08-22T13:55:17.934Z,29.37
2022-08-22T13:56:25.977Z,29.31
2022-08-22T13:57:32.648Z,29.04
2022-08-22T13:58:47.811Z,29.50
2022-08-22T14:00:01.543Z,29.02
2022-08-22T14:01:28.366Z,29.13
2022-08-22T14:02:43.318Z,28.81
2022-08-22T14:03:50.171Z,28.48
2022-08-22T14:04:54.276Z,28.97
2022-08-22T14:05:59.020Z,29.44
2022-08-22T14:07:33.778Z,29.50
2022-08-22T14:08:37.348Z,29.35
2022-08-22T14:10:06.639Z,29.11
2022-08-22T14:11:32.721Z,28.70
2022-08-22T14:12:50.210Z,28.83
2022-08-22T14:14:03.117Z,28.63
2022-08-22T14:15:07.952Z,28.52
2022-08-22T14:16:20.879Z,28.82
2022-08-22T14:17:31.503Z,28.49
2022-08-22T14:18:45.674Z,28.28
2022-08-22T14:19:58.829Z,28.02
2022-08-22T14:21:28.478Z,27.83
2022-08-22T14:22:37.879Z,28.21
2022-08-22T14:23:40.320Z,28.34
2022-08-22T14:24:46.446Z,27.79
2022-08-22T14:25:57.476Z,27.76
2022-08-22T14:27:30.644Z,27.33
2022-08-22T14:28:33.538Z,27.31
2022-08-22T14:30:01.699Z,28.37
2022-08-22T14:31:13.539Z,28.51
2022-08-22T14:32:22.681Z,28.52
2022-08-22T14:33:35.234Z,28.65
2022-08-22T14:34:41.026Z,28.37
2022-08-22T14:35:54.474Z,28.16
2022-08-22T14:37:13.045Z,28.71
2022-08-22T14:38:32.676Z,29.06
2022-08-22T14:39:49.136Z,29.36
2022-08-22T14:41:03.369Z,29.96
2022-08-22T14:42:12.064Z,29.50
2022-08-22T14:43:22.516Z,29.33
2022-08-22T14:44:44.722Z,29.02
2022-08-22T14:45:56.176Z,29.33
2022-08-22T14:47:04.261Z,29.54
2022-08-22T14:48:30.070Z,28.84
2022-08-22T14:50:00.582Z,28.73
2022-08-22T14:51:06.004Z,28.41
2022-08-22T14:52:25.401Z,28.24
2022-08-22T14:53:32.773Z,28.68
2022-08-22T14:54:35.554Z,28.81
2022-08-22T14:55:39.657Z,29.22
2022-08-22T14:56:42.913Z,28.89
2022-08-22T14:57:50.627Z,29.36
2022-08-22T14:59:24.570Z,29.53
2022-08-22T15:00:47.897Z,30.69
2022-08-22T15:02:00.340Z,32.32
2022-08-22T15:03:29.278Z,30.82
2022-08-22T15:04:39.098Z,29.89
2022-08-22T15:05:45.514Z,30.00
2022-08-22T15:07:08.399Z,30.25
2022-08-22T15:08:12.794Z,30.19
2022-08-22T15:09:31.238Z,30.38
2022-08-22T15:10:34.366Z,30.74
2022-08-22T15:11:36.628Z,30.62
2022-08-22T15:12:45.150Z,31.06
2022-08-22T15:13:56.790Z,30.40
2022-08-22T15:15:12.851Z,28.76
2022-08-22T15:16:23.109Z,29.13
2022-08-22T15:17:44.520Z,28.35
2022-08-22T15:18:52.126Z,29.36
2022-08-22T15:19:54.047Z,28.25
2022-08-22T15:21:24.229Z,27.72
2022-08-22T15:22:28.175Z,28.04
2022-08-22T15:23:31.974Z,28.67
2022-08-22T15:24:34.329Z,29.02
2022-08-22T15:25:41.020Z,29.12
2022-08-22T15:26:55.364Z,28.49
2022-08-22T15:29:22.220Z,28.83
2022-08-22T15:30:57.229Z,29.40
2022-08-22T15:32:02.320Z,29.33
2022-08-22T15:33:25.036Z,29.41
2022-08-22T15:34:34.960Z,29.26
2022-08-22T15:35:38.929Z,30.07
2022-08-22T15:37:01.674Z,29.81
2022-08-22T15:38:39.484Z,30.24
2022-08-22T15:40:12.070Z,30.97
2022-08-22T15:41:36.300Z,30.50
2022-08-22T15:42:50.367Z,30.28
2022-08-22T15:44:00.385Z,30.27
2022-08-22T15:45:03.777Z,30.56
2022-08-22T15:46:21.253Z,30.85
2022-08-22T15:47:34.975Z,31.50
2022-08-22T15:48:41.390Z,30.83
2022-08-22T15:49:52.984Z,30.26
2022-08-22T15:50:59.058Z,30.64
2022-08-22T15:52:01.821Z,30.88
2022-08-22T15:53:09.402Z,30.40
2022-08-22T15:54:25.024Z,29.87
2022-08-22T15:55:28.604Z,30.01
2022-08-22T15:56:36.631Z,30.17
2022-08-22T15:57:40.721Z,30.23
2022-08-22T15:58:48.853Z,30.71
2022-08-22T15:59:56.245Z,31.38
2022-08-22T16:01:19.702Z,31.48
2022-08-22T16:02:35.079Z,31.14
2022-08-22T16:03:42.484Z,30.88
2022-08-22T16:04:53.716Z,30.59
2022-08-22T16:05:58.919Z,31.17
2022-08-22T16:07:02.009Z,32.82
2022-08-22T16:08:12.347Z,32.29
2022-08-22T16:09:32.317Z,31.55
2022-08-22T16:10:39.908Z,31.41
2022-08-22T16:11:41.692Z,31.12
2022-08-22T16:12:45.982Z,30.96
2022-08-22T16:13:48.500Z,31.91
2022-08-22T16:14:51.485Z,31.06
2022-08-22T16:16:02.115Z,31.36
2022-08-22T16:17:08.112Z,30.76
2022-08-22T16:18:09.565Z,31.13
2022-08-22T16:19:19.340Z,31.51
2022-08-22T16:20:20.775Z,31.92
2022-08-22T16:21:22.188Z,32.37